New River, Virginia
Current Conditions -  °F | °C
As of 6:17 AM on Friday 24 Oct 2014 (Local Time) from KPSK Reporting Station
Clear Clear  
Wind Chill: 45°   Ceiling: Unl
Heat Index: 45°   Visibility: 10mi
Dew Point: 41°   Wind: 0mph
Humidity: 87%   Direction: NA
Pressure: 30.1"   Gusts: NA
Location:  37.13°N, 80.59°W
Report Text: KPSK 241017Z AUTO 00000KT 10SM CLR 07/05 A3010 RMK AO2
Loading
Personal Weather Stations






























Interactive Weather Map
Tropical Storm Tracking
New forecast layout! Learn more

10-Day Weather Forecast

Advertisements
Track Severe Weather on mobile